Terminal Aerodrome Forecast
Issued by NWS New Orleans/Baton Rouge, LA

Home | Current Version | Previous Version | Text Only | Print | Product List | Glossary On
Versions: 1 2 3 4 5 6 7 8 9 10 11 12 13 14 15 16 17 18 19 20 21
000
FTUS44 KLIX 271401 AAB
TAFBTR
TAF AMD
KBTR 271401Z 2714/2812 13006KT P6SM SCT017 SCT025
      TEMPO 2714/2716 BKN017 BKN025
     FM271600 15011KT P6SM SCT035 BKN060
     FM280300 14007KT P6SM BKN250
     FM280900 VRB03KT P6SM BKN035=

USA.gov is the U.S. government's official web portal to all federal, state and local government web resources and services.